createdAt,value
2022-08-09T00:01:43.163Z,18.60
2022-08-09T00:04:34.718Z,18.60
2022-08-09T00:07:10.532Z,18.60
2022-08-09T00:09:38.531Z,18.50
2022-08-09T00:12:06.626Z,18.50
2022-08-09T00:14:37.827Z,18.50
2022-08-09T00:17:06.464Z,18.50
2022-08-09T00:19:35.943Z,18.40
2022-08-09T00:22:04.412Z,18.50
2022-08-09T00:24:32.444Z,18.40
2022-08-09T00:27:01.091Z,18.50
2022-08-09T00:29:39.085Z,18.50
2022-08-09T00:32:27.261Z,18.40
2022-08-09T00:34:55.707Z,18.30
2022-08-09T00:37:23.949Z,18.30
2022-08-09T00:40:13.898Z,18.30
2022-08-09T00:44:19.576Z,18.30
2022-08-09T00:45:26.395Z,18.30
2022-08-09T00:47:55.484Z,18.20
2022-08-09T00:50:23.843Z,18.20
2022-08-09T00:52:52.895Z,18.20
2022-08-09T00:56:03.785Z,18.20
2022-08-09T00:58:09.032Z,18.20
2022-08-09T01:00:40.676Z,18.20
2022-08-09T01:03:13.712Z,18.30
2022-08-09T01:06:17.405Z,18.30
2022-08-09T01:09:06.384Z,18.40
2022-08-09T01:11:42.429Z,18.40
2022-08-09T01:14:28.285Z,18.40
2022-08-09T01:17:02.607Z,18.40
2022-08-09T01:20:01.664Z,18.40
2022-08-09T01:24:01.259Z,18.50
2022-08-09T01:26:16.979Z,18.50
2022-08-09T01:28:48.245Z,18.50
2022-08-09T01:32:29.213Z,18.40
2022-08-09T01:34:10.847Z,18.40
2022-08-09T01:36:41.094Z,18.40
2022-08-09T01:39:08.780Z,18.40
2022-08-09T01:41:37.747Z,18.30
2022-08-09T01:44:25.169Z,18.30
2022-08-09T01:46:53.772Z,18.30
2022-08-09T01:49:24.167Z,18.30
2022-08-09T01:51:56.863Z,18.30
2022-08-09T01:54:32.523Z,18.30
2022-08-09T01:57:12.147Z,18.30
2022-08-09T01:59:51.910Z,18.40
2022-08-09T02:02:30.901Z,18.30
2022-08-09T02:05:05.563Z,18.30
2022-08-09T02:08:38.706Z,18.30
2022-08-09T02:10:38.589Z,18.20
2022-08-09T02:13:09.745Z,18.10
2022-08-09T02:15:50.419Z,18.10
2022-08-09T02:18:23.689Z,18.00
2022-08-09T02:21:21.887Z,17.90
2022-08-09T02:23:54.744Z,17.90
2022-08-09T02:26:28.161Z,17.80
2022-08-09T02:29:03.532Z,17.70
2022-08-09T02:31:36.463Z,17.70
2022-08-09T02:34:40.272Z,17.70
2022-08-09T02:37:06.857Z,17.70
2022-08-09T02:39:41.849Z,17.70
2022-08-09T02:42:17.475Z,17.70
2022-08-09T02:44:51.876Z,17.70
2022-08-09T02:47:22.883Z,17.60
2022-08-09T02:50:01.535Z,17.60
2022-08-09T02:52:38.345Z,17.60
2022-08-09T02:55:21.084Z,17.60
2022-08-09T02:58:32.890Z,17.50
2022-08-09T03:00:47.698Z,17.50
2022-08-09T03:04:05.770Z,17.40
2022-08-09T03:06:16.101Z,17.40
2022-08-09T03:08:46.103Z,17.30
2022-08-09T03:11:29.985Z,17.30
2022-08-09T03:14:07.083Z,17.20
2022-08-09T03:16:38.466Z,17.10
2022-08-09T03:19:14.405Z,17.00
2022-08-09T03:21:59.278Z,16.90
2022-08-09T03:24:42.159Z,16.80
2022-08-09T03:27:10.786Z,16.70
2022-08-09T03:29:57.132Z,16.60
2022-08-09T03:32:30.958Z,16.40
2022-08-09T03:35:00.180Z,16.40
2022-08-09T03:37:56.127Z,16.30
2022-08-09T03:40:17.901Z,16.30
2022-08-09T03:42:46.609Z,16.20
2022-08-09T03:45:16.646Z,16.10
2022-08-09T03:48:04.244Z,16.10
2022-08-09T03:50:35.211Z,16.00
2022-08-09T03:53:06.608Z,15.90
2022-08-09T03:55:40.953Z,15.80
2022-08-09T03:58:16.508Z,15.70
2022-08-09T04:00:49.739Z,15.70
2022-08-09T04:03:24.570Z,15.60
2022-08-09T04:06:04.670Z,15.70
2022-08-09T04:08:33.469Z,15.60
2022-08-09T04:11:01.342Z,15.60
2022-08-09T04:14:37.724Z,15.70
2022-08-09T04:16:20.134Z,15.70
2022-08-09T04:18:51.134Z,15.60
2022-08-09T04:21:19.860Z,15.60
2022-08-09T04:23:53.891Z,15.70
2022-08-09T04:26:23.369Z,15.70
2022-08-09T04:28:54.978Z,15.70
2022-08-09T04:31:37.648Z,15.70
2022-08-09T04:34:14.512Z,15.70
2022-08-09T04:36:50.223Z,15.80
2022-08-09T04:39:17.971Z,15.90
2022-08-09T04:41:46.179Z,16.00
2022-08-09T04:44:14.505Z,16.00
2022-08-09T04:46:59.940Z,16.10
2022-08-09T04:49:53.736Z,16.20
2022-08-09T04:52:27.107Z,16.20
2022-08-09T04:54:56.860Z,16.40
2022-08-09T04:57:25.215Z,16.40
2022-08-09T04:59:54.446Z,16.60
2022-08-09T05:02:22.371Z,16.70
2022-08-09T05:04:55.230Z,16.90
2022-08-09T05:07:23.649Z,16.90
2022-08-09T05:09:51.481Z,17.10
2022-08-09T05:12:19.159Z,17.20
2022-08-09T05:14:50.263Z,17.30
2022-08-09T05:18:50.418Z,17.40
2022-08-09T05:20:05.823Z,17.50
2022-08-09T05:23:50.898Z,17.60
2022-08-09T05:25:25.792Z,17.70
2022-08-09T05:28:00.070Z,17.90
2022-08-09T05:30:31.258Z,18.00
2022-08-09T05:32:58.779Z,18.10
2022-08-09T05:35:26.394Z,18.10
2022-08-09T05:37:57.341Z,18.30
2022-08-09T05:40:28.724Z,18.30
2022-08-09T05:42:57.538Z,18.40
2022-08-09T05:45:25.492Z,18.60
2022-08-09T05:48:11.081Z,18.70
2022-08-09T05:50:51.171Z,18.90
2022-08-09T05:53:33.178Z,19.00
2022-08-09T05:56:02.135Z,19.20
2022-08-09T05:58:29.440Z,19.40
2022-08-09T06:00:56.668Z,20.30
2022-08-09T06:03:44.221Z,22.30
2022-08-09T06:06:17.321Z,24.70
2022-08-09T06:08:44.953Z,27.00
2022-08-09T06:11:20.223Z,28.90
2022-08-09T06:14:08.258Z,30.20
2022-08-09T06:16:35.510Z,31.80
2022-08-09T06:19:02.925Z,32.60
2022-08-09T06:21:32.080Z,33.40
2022-08-09T06:24:01.600Z,33.60
2022-08-09T06:26:30.114Z,34.20
2022-08-09T06:29:05.002Z,35.00
2022-08-09T06:31:40.405Z,35.20
2022-08-09T06:34:22.746Z,34.90
2022-08-09T06:36:57.274Z,35.00
2022-08-09T06:39:57.526Z,34.70
2022-08-09T06:42:17.019Z,34.50
2022-08-09T06:44:53.952Z,34.20
2022-08-09T06:47:22.311Z,34.90
2022-08-09T06:50:13.504Z,35.20
2022-08-09T06:52:46.949Z,35.30
2022-08-09T06:55:17.756Z,35.40
2022-08-09T06:58:03.179Z,35.40
2022-08-09T07:00:49.824Z,35.80
2022-08-09T07:03:28.456Z,35.30
2022-08-09T07:06:03.896Z,35.80
2022-08-09T07:08:33.869Z,36.10
2022-08-09T07:11:03.302Z,36.10
2022-08-09T07:13:31.165Z,35.60
2022-08-09T07:16:40.354Z,36.00
2022-08-09T07:19:00.936Z,36.30
2022-08-09T07:21:30.904Z,36.80
2022-08-09T07:23:58.605Z,36.50
2022-08-09T07:26:26.088Z,36.80
2022-08-09T07:29:09.287Z,36.90
2022-08-09T07:31:45.314Z,37.40
2022-08-09T07:34:20.143Z,37.20
2022-08-09T07:36:49.811Z,37.10
2022-08-09T07:39:20.307Z,37.30
2022-08-09T07:42:06.368Z,37.70
2022-08-09T07:44:51.031Z,37.90
2022-08-09T07:47:39.581Z,38.10
2022-08-09T07:50:11.627Z,37.70
2022-08-09T07:52:41.417Z,37.40
2022-08-09T07:55:11.722Z,37.40
2022-08-09T07:57:46.913Z,38.30
2022-08-09T08:00:20.642Z,39.00
2022-08-09T08:03:05.129Z,39.20
2022-08-09T08:05:39.203Z,39.00
2022-08-09T08:09:00.981Z,38.70
2022-08-09T08:12:10.952Z,38.30
2022-08-09T08:14:00.397Z,38.40
2022-08-09T08:16:32.259Z,38.30
2022-08-09T08:19:03.133Z,38.90
2022-08-09T08:21:32.416Z,39.10
2022-08-09T08:24:01.423Z,39.30
2022-08-09T08:26:54.869Z,39.40
2022-08-09T08:29:28.684Z,38.90
2022-08-09T08:32:07.279Z,39.20
2022-08-09T08:34:40.011Z,39.60
2022-08-09T08:37:15.768Z,39.70
2022-08-09T08:39:47.064Z,40.20
2022-08-09T08:42:14.335Z,39.90
2022-08-09T08:44:44.502Z,39.60
2022-08-09T08:47:15.962Z,38.80
2022-08-09T08:49:47.916Z,37.90
2022-08-09T08:55:08.801Z,35.70
2022-08-09T08:57:38.738Z,34.60
2022-08-09T09:00:17.198Z,33.90
2022-08-09T09:03:08.165Z,33.30
2022-08-09T09:06:00.393Z,32.70
2022-08-09T09:08:40.662Z,32.60
2022-08-09T09:11:13.720Z,32.20
2022-08-09T09:13:56.809Z,32.10
2022-08-09T09:16:30.476Z,32.00
2022-08-09T09:19:29.122Z,31.60
2022-08-09T09:22:04.277Z,31.60
2022-08-09T09:24:38.857Z,31.40
2022-08-09T09:27:08.809Z,31.00
2022-08-09T09:30:10.636Z,31.10
2022-08-09T09:32:34.549Z,31.10
2022-08-09T09:35:09.155Z,31.20
2022-08-09T09:37:40.519Z,31.40
2022-08-09T09:40:11.883Z,31.30
2022-08-09T09:42:43.022Z,31.60
2022-08-09T09:45:14.526Z,31.50
2022-08-09T09:47:56.548Z,31.40
2022-08-09T09:50:49.622Z,31.40
2022-08-09T09:53:21.519Z,31.50
2022-08-09T09:56:04.311Z,31.40
2022-08-09T09:58:46.113Z,31.30
2022-08-09T10:01:37.792Z,31.60
2022-08-09T10:04:16.151Z,31.70
2022-08-09T10:06:52.069Z,31.80
2022-08-09T10:09:24.001Z,31.90
2022-08-09T10:12:12.485Z,31.90
2022-08-09T10:14:50.097Z,31.70
2022-08-09T10:17:54.840Z,31.60
2022-08-09T10:20:35.469Z,31.50
2022-08-09T10:23:23.758Z,31.40
2022-08-09T10:26:06.921Z,31.20
2022-08-09T10:28:40.874Z,31.20
2022-08-09T10:34:08.544Z,31.20
2022-08-09T10:36:40.019Z,31.50
2022-08-09T10:39:15.801Z,31.60
2022-08-09T10:41:48.062Z,31.60
2022-08-09T10:44:21.640Z,31.70
2022-08-09T10:47:20.299Z,31.60
2022-08-09T10:50:10.385Z,31.40
2022-08-09T10:53:04.017Z,31.40
2022-08-09T10:55:49.192Z,31.50
2022-08-09T10:58:37.483Z,31.60
2022-08-09T11:03:06.892Z,31.70
2022-08-09T11:04:19.463Z,31.80
2022-08-09T11:06:59.779Z,31.90
2022-08-09T11:09:48.259Z,31.90
2022-08-09T11:12:17.796Z,31.90
2022-08-09T11:14:49.063Z,31.70
2022-08-09T11:17:19.341Z,31.50
2022-08-09T11:20:11.135Z,31.30
2022-08-09T11:22:55.311Z,31.30
2022-08-09T11:25:47.489Z,31.30
2022-08-09T11:28:38.311Z,31.40
2022-08-09T11:31:43.100Z,31.70
2022-08-09T11:34:20.466Z,31.90
2022-08-09T11:36:49.199Z,31.70
2022-08-09T11:39:16.681Z,31.70
2022-08-09T11:41:45.208Z,31.60
2022-08-09T11:44:13.448Z,31.50
2022-08-09T11:47:01.386Z,31.40
2022-08-09T11:50:53.765Z,31.20
2022-08-09T11:53:57.603Z,31.20
2022-08-09T11:56:21.256Z,30.90
2022-08-09T11:59:10.708Z,30.90
2022-08-09T12:02:17.127Z,30.80
2022-08-09T12:04:32.451Z,31.10
2022-08-09T12:07:08.175Z,31.30
2022-08-09T12:09:36.488Z,31.40
2022-08-09T12:12:12.997Z,31.50
2022-08-09T12:15:04.013Z,31.70
2022-08-09T12:17:44.541Z,31.80
2022-08-09T12:20:22.318Z,32.00
2022-08-09T12:22:56.338Z,32.10
2022-08-09T12:25:32.036Z,32.10
2022-08-09T12:29:10.893Z,31.80
2022-08-09T12:31:01.194Z,31.90
2022-08-09T12:33:50.850Z,32.10
2022-08-09T12:36:32.280Z,32.00
2022-08-09T12:39:01.825Z,32.10
2022-08-09T12:41:38.173Z,32.10
2022-08-09T12:44:10.241Z,32.10
2022-08-09T12:46:49.283Z,31.90
2022-08-09T12:49:18.356Z,32.00
2022-08-09T12:52:03.457Z,32.00
2022-08-09T12:56:10.831Z,32.00
2022-08-09T12:57:47.031Z,31.70
2022-08-09T13:00:19.170Z,31.90
2022-08-09T13:02:55.741Z,31.90
2022-08-09T13:05:27.218Z,31.80
2022-08-09T13:08:21.283Z,31.70
2022-08-09T13:11:13.154Z,31.80
2022-08-09T13:14:36.911Z,31.90
2022-08-09T13:16:49.675Z,32.00
2022-08-09T13:20:07.801Z,32.20
2022-08-09T13:22:36.264Z,32.20
2022-08-09T13:25:15.126Z,32.10
2022-08-09T13:27:48.296Z,32.10
2022-08-09T13:30:51.032Z,32.10
2022-08-09T13:33:22.446Z,31.80
2022-08-09T13:36:39.553Z,31.80
2022-08-09T13:38:56.654Z,31.60
2022-08-09T13:41:55.684Z,31.60
2022-08-09T13:44:13.765Z,31.50
2022-08-09T13:47:26.412Z,31.50
2022-08-09T13:49:35.278Z,31.20
2022-08-09T13:52:09.298Z,30.70
2022-08-09T13:54:43.103Z,30.60
2022-08-09T13:57:35.961Z,30.50
2022-08-09T14:00:10.618Z,30.50
2022-08-09T14:02:42.899Z,30.60
2022-08-09T14:06:00.090Z,30.80
2022-08-09T14:08:20.685Z,30.90
2022-08-09T14:10:50.624Z,30.60
2022-08-09T14:13:28.267Z,30.60
2022-08-09T14:16:14.022Z,30.60
2022-08-09T14:18:45.276Z,30.70
2022-08-09T14:21:18.102Z,30.60
2022-08-09T14:23:54.215Z,30.40
2022-08-09T14:26:30.238Z,30.20
2022-08-09T14:29:07.433Z,30.10
2022-08-09T14:31:49.904Z,30.10
2022-08-09T14:34:30.891Z,30.00
2022-08-09T14:37:06.772Z,29.80
2022-08-09T14:39:45.911Z,29.80
2022-08-09T14:42:39.374Z,29.80
2022-08-09T14:46:54.155Z,29.70
2022-08-09T14:48:00.281Z,29.80
2022-08-09T14:50:32.580Z,29.50
2022-08-09T14:53:02.363Z,29.30
2022-08-09T14:55:32.720Z,29.20
2022-08-09T14:58:05.110Z,29.40
2022-08-09T15:00:36.494Z,29.40
2022-08-09T15:03:06.735Z,29.30
2022-08-09T15:05:34.729Z,29.10
2022-08-09T15:08:06.402Z,29.30
2022-08-09T15:10:38.327Z,29.30
2022-08-09T15:13:09.003Z,29.10
2022-08-09T15:15:38.973Z,29.10
2022-08-09T15:18:12.426Z,29.00
2022-08-09T15:21:54.854Z,29.10
2022-08-09T15:24:00.798Z,29.10
2022-08-09T15:26:31.246Z,29.10
2022-08-09T15:29:04.276Z,29.10
2022-08-09T15:31:41.771Z,28.90
2022-08-09T15:34:33.038Z,28.90
2022-08-09T15:36:58.557Z,28.80
2022-08-09T15:39:43.954Z,28.70
2022-08-09T15:42:14.986Z,28.60
2022-08-09T15:44:42.669Z,28.60
2022-08-09T15:47:14.558Z,28.60
2022-08-09T15:50:00.727Z,28.50
2022-08-09T15:52:32.824Z,28.40
2022-08-09T15:55:01.099Z,28.20
2022-08-09T15:57:34.568Z,28.20
2022-08-09T16:00:08.572Z,28.10
2022-08-09T16:02:38.588Z,28.00
2022-08-09T16:05:08.799Z,28.00
2022-08-09T16:07:38.801Z,27.90
2022-08-09T16:10:11.423Z,27.80
2022-08-09T16:12:57.815Z,27.70
2022-08-09T16:16:10.202Z,27.60
2022-08-09T16:18:16.436Z,27.50
2022-08-09T16:20:43.913Z,27.40
2022-08-09T16:23:14.483Z,27.40
2022-08-09T16:25:49.813Z,27.30
2022-08-09T16:28:17.331Z,27.30
2022-08-09T16:30:59.083Z,27.10
2022-08-09T16:33:27.532Z,27.10
2022-08-09T16:36:01.916Z,27.00
2022-08-09T16:38:40.224Z,27.00
2022-08-09T16:41:08.032Z,26.90
2022-08-09T16:43:41.550Z,26.80
2022-08-09T16:46:13.152Z,26.80
2022-08-09T16:48:56.530Z,26.70
2022-08-09T16:51:28.384Z,26.60
2022-08-09T16:54:25.340Z,26.50
2022-08-09T16:56:49.432Z,26.50
2022-08-09T16:59:18.057Z,26.40
2022-08-09T17:01:49.034Z,26.30
2022-08-09T17:04:25.662Z,26.30
2022-08-09T17:08:46.751Z,26.20
2022-08-09T17:09:46.037Z,26.10
2022-08-09T17:12:14.898Z,26.00
2022-08-09T17:14:46.314Z,26.00
2022-08-09T17:17:26.707Z,25.90
2022-08-09T17:20:30.202Z,25.80
2022-08-09T17:22:49.548Z,25.80
2022-08-09T17:25:18.924Z,25.70
2022-08-09T17:27:48.706Z,25.60
2022-08-09T17:30:17.232Z,25.50
2022-08-09T17:32:47.164Z,25.40
2022-08-09T17:35:15.060Z,25.30
2022-08-09T17:38:10.183Z,25.20
2022-08-09T17:40:34.641Z,25.20
2022-08-09T17:43:32.429Z,25.10
2022-08-09T17:46:03.202Z,25.00
2022-08-09T17:48:35.061Z,24.90
2022-08-09T17:51:18.821Z,24.80
2022-08-09T17:53:54.986Z,24.70
2022-08-09T17:56:27.620Z,24.60
2022-08-09T17:58:59.557Z,24.50
2022-08-09T18:02:03.499Z,24.50
2022-08-09T18:04:20.406Z,24.40
2022-08-09T18:06:55.030Z,24.30
2022-08-09T18:09:40.036Z,24.30
2022-08-09T18:12:15.003Z,24.20
2022-08-09T18:14:53.390Z,24.10
2022-08-09T18:17:27.633Z,24.00
2022-08-09T18:20:54.793Z,23.90
2022-08-09T18:22:59.790Z,23.80
2022-08-09T18:25:50.679Z,23.70
2022-08-09T18:30:35.554Z,23.60
2022-08-09T18:31:06.741Z,23.40
2022-08-09T18:33:34.618Z,23.20
2022-08-09T18:36:02.114Z,23.00
2022-08-09T18:38:29.505Z,22.90
2022-08-09T18:40:58.790Z,22.60
2022-08-09T18:43:26.154Z,22.50
2022-08-09T18:46:47.571Z,22.30
2022-08-09T18:48:42.411Z,22.20
2022-08-09T18:51:10.392Z,22.00
2022-08-09T18:53:56.372Z,22.00
2022-08-09T18:56:28.147Z,21.80
2022-08-09T18:58:57.533Z,21.70
2022-08-09T19:01:28.906Z,21.70
2022-08-09T19:04:11.207Z,21.60
2022-08-09T19:06:39.170Z,21.60
2022-08-09T19:09:34.207Z,21.60
2022-08-09T19:12:07.787Z,21.50
2022-08-09T19:14:37.710Z,21.40
2022-08-09T19:17:05.224Z,21.30
2022-08-09T19:19:41.682Z,21.20
2022-08-09T19:22:09.412Z,21.20
2022-08-09T19:25:11.419Z,21.20
2022-08-09T19:27:28.568Z,21.10
2022-08-09T19:30:25.033Z,21.10
2022-08-09T19:32:44.972Z,21.00
2022-08-09T19:35:12.358Z,21.00
2022-08-09T19:37:54.095Z,20.90
2022-08-09T19:40:22.853Z,20.90
2022-08-09T19:42:50.423Z,20.80
2022-08-09T19:45:17.728Z,20.70
2022-08-09T19:47:46.519Z,20.70
2022-08-09T19:50:50.985Z,20.80
2022-08-09T19:53:02.355Z,20.70
2022-08-09T19:56:02.340Z,20.70
2022-08-09T19:58:29.725Z,20.60
2022-08-09T20:00:58.480Z,20.60
2022-08-09T20:04:18.428Z,20.50
2022-08-09T20:06:23.217Z,20.40
2022-08-09T20:08:56.538Z,20.40
2022-08-09T20:11:26.971Z,20.20
2022-08-09T20:13:55.854Z,20.10
2022-08-09T20:16:34.153Z,20.00
2022-08-09T20:19:49.394Z,19.90
2022-08-09T20:21:57.416Z,19.80
2022-08-09T20:24:31.788Z,19.70
2022-08-09T20:27:03.034Z,19.60
2022-08-09T20:29:37.746Z,19.60
2022-08-09T20:32:31.130Z,19.60
2022-08-09T20:34:58.396Z,19.60
2022-08-09T20:38:18.992Z,19.70
2022-08-09T20:40:19.245Z,19.70
2022-08-09T20:42:59.687Z,19.70
2022-08-09T20:46:02.031Z,19.60
2022-08-09T20:48:21.391Z,19.60
2022-08-09T20:50:54.281Z,19.70
2022-08-09T20:53:36.147Z,19.70
2022-08-09T20:56:08.902Z,19.70
2022-08-09T20:58:36.449Z,19.70
2022-08-09T21:01:33.487Z,19.70
2022-08-09T21:05:49.013Z,19.70
2022-08-09T21:06:44.526Z,19.60
2022-08-09T21:09:13.907Z,19.60
2022-08-09T21:14:30.838Z,19.50
2022-08-09T21:17:01.238Z,19.40
2022-08-09T21:20:17.206Z,19.30
2022-08-09T21:22:35.729Z,19.20
2022-08-09T21:25:25.350Z,19.20
2022-08-09T21:27:53.402Z,19.20
2022-08-09T21:30:25.000Z,19.00
2022-08-09T21:32:53.270Z,18.90
2022-08-09T21:35:21.575Z,18.90
2022-08-09T21:37:59.566Z,18.80
2022-08-09T21:40:30.896Z,18.70
2022-08-09T21:43:01.244Z,18.60
2022-08-09T21:45:28.985Z,18.50
2022-08-09T21:47:59.226Z,18.40
2022-08-09T21:50:38.974Z,18.30
2022-08-09T21:53:19.926Z,18.20
2022-08-09T21:56:03.610Z,18.10
2022-08-09T21:58:31.269Z,18.00
2022-08-09T22:00:59.292Z,17.90
2022-08-09T22:03:27.053Z,17.80
2022-08-09T22:05:55.184Z,17.80
2022-08-09T22:08:25.905Z,17.70
2022-08-09T22:11:50.317Z,17.60
2022-08-09T22:13:43.918Z,17.50
2022-08-09T22:16:11.949Z,17.40
2022-08-09T22:18:54.457Z,17.40
2022-08-09T22:21:27.461Z,17.30
2022-08-09T22:24:16.966Z,17.20
2022-08-09T22:26:51.804Z,17.10
2022-08-09T22:29:22.992Z,17.00
2022-08-09T22:31:57.554Z,16.90
2022-08-09T22:34:27.155Z,16.90
2022-08-09T22:36:56.468Z,17.00
2022-08-09T22:39:56.060Z,16.90
2022-08-09T22:42:21.465Z,16.90
2022-08-09T22:45:00.287Z,16.80
2022-08-09T22:48:34.330Z,16.80
2022-08-09T22:50:29.874Z,16.70
2022-08-09T22:52:58.177Z,16.70
2022-08-09T22:55:33.616Z,16.60
2022-08-09T22:58:07.764Z,16.50
2022-08-09T23:00:37.454Z,16.50
2022-08-09T23:03:04.775Z,16.40
2022-08-09T23:05:40.384Z,16.30
2022-08-09T23:08:33.287Z,16.20
2022-08-09T23:11:01.625Z,16.20
2022-08-09T23:13:28.826Z,16.20
2022-08-09T23:16:03.060Z,16.10
2022-08-09T23:18:31.460Z,16.10
2022-08-09T23:20:58.626Z,16.00
2022-08-09T23:23:25.906Z,16.00
2022-08-09T23:25:53.005Z,15.90
2022-08-09T23:28:21.161Z,15.80
2022-08-09T23:30:50.854Z,15.70
2022-08-09T23:33:20.547Z,15.70
2022-08-09T23:36:05.048Z,15.60
2022-08-09T23:38:36.001Z,15.50
2022-08-09T23:41:28.501Z,15.50
2022-08-09T23:43:58.383Z,15.50
2022-08-09T23:46:26.300Z,15.40
2022-08-09T23:48:53.651Z,15.40
2022-08-09T23:51:20.953Z,15.40
2022-08-09T23:53:52.335Z,15.30
2022-08-09T23:56:51.947Z,15.30
2022-08-09T23:59:07.230Z,15.30
